Time;durP1;ratioP1;P1;durP2;ratioP2;P2;SDS_P1;SDS_P2;PMS_P1;PMS_P2;Temp;Humidity;BMP_temperature;BMP_pressure;BME280_temperature;BME280_humidity;BME280_pressure;Samples;Min_cycle;Max_cycle;Signal;HPM_P1;HPM_P2
2023/03/08 05:09:08;;;;;;;4.65;2.42;;;;;;;;;;5546183;23;20023;-72
2023/03/08 05:11:34;;;;;;;5.43;2.30;;;;;;;;;;4886061;29;20053;-67
2023/03/08 05:14:00;;;;;;;4.85;2.60;;;;;;;;;;4895344;29;20041;-72
2023/03/08 05:16:26;;;;;;;6.28;2.80;;;;;;;;;;4895230;29;20072;-70
2023/03/08 05:18:52;;;;;;;8.75;3.38;;;;;;;;;;4895310;29;20031;-66
2023/03/08 05:21:20;;;;;;;6.57;3.10;;;;;;;;;;4895142;29;20036;-65
2023/03/08 05:23:46;;;;;;;5.20;2.38;;;;;;;;;;4895102;29;20037;-59
2023/03/08 05:26:14;;;;;;;6.70;2.50;;;;;;;;;;4895020;29;20037;-58
2023/03/08 05:28:43;;;;;;;5.22;2.30;;;;;;;;;;4893297;29;20025;-59
2023/03/08 05:31:13;;;;;;;10.02;3.22;;;;;;;;;;4897755;29;20035;-60
2023/03/08 05:33:40;;;;;;;12.95;5.10;;;;;;;;;;4898122;29;20095;-59
2023/03/08 05:36:06;;;;;;;10.57;4.25;;;;;;;;;;4898081;29;20041;-66
2023/03/08 05:38:33;;;;;;;8.50;3.78;;;;;;;;;;4898377;29;20025;-61
2023/03/08 05:41:00;;;;;;;7.70;3.20;;;;;;;;;;4898375;29;20076;-58
2023/03/08 05:43:26;;;;;;;7.43;2.75;;;;;;;;;;4898466;29;20112;-60
2023/03/08 05:45:56;;;;;;;10.25;2.72;;;;;;;;;;4896961;29;20484;-59
2023/03/08 05:48:22;;;;;;;7.28;2.75;;;;;;;;;;4896701;29;20032;-73
2023/03/08 05:50:48;;;;;;;9.63;3.00;;;;;;;;;;4896521;29;20024;-59
2023/03/08 05:53:14;;;;;;;8.90;2.90;;;;;;;;;;4896166;29;20028;-64
2023/03/08 05:55:40;;;;;;;8.00;2.65;;;;;;;;;;4896343;29;20032;-69
2023/03/08 05:58:06;;;;;;;10.63;3.83;;;;;;;;;;4896330;29;20385;-59
2023/03/08 06:00:32;;;;;;;20.52;7.85;;;;;;;;;;4896010;29;20033;-62
2023/03/08 06:03:02;;;;;;;14.43;5.22;;;;;;;;;;4893625;29;20033;-61
2023/03/08 06:05:28;;;;;;;16.23;7.03;;;;;;;;;;4896382;29;20087;-59
2023/03/08 06:07:54;;;;;;;17.83;6.72;;;;;;;;;;4896355;29;20456;-60
2023/03/08 06:10:20;;;;;;;16.38;4.80;;;;;;;;;;4900421;29;20508;-60
2023/03/08 06:12:46;;;;;;;11.27;4.00;;;;;;;;;;4905233;29;20071;-60
2023/03/08 06:15:13;;;;;;;9.75;3.85;;;;;;;;;;4912804;29;20040;-60
2023/03/08 06:17:39;;;;;;;21.77;4.72;;;;;;;;;;4916082;29;20020;-60
2023/03/08 06:20:05;;;;;;;16.85;4.15;;;;;;;;;;4916352;29;20113;-65
2023/03/08 06:22:32;;;;;;;17.23;4.72;;;;;;;;;;4915746;29;20576;-62
2023/03/08 06:24:58;;;;;;;14.20;4.95;;;;;;;;;;4915913;29;20207;-60
2023/03/08 06:27:24;;;;;;;12.25;5.07;;;;;;;;;;4915908;29;20136;-60
2023/03/08 06:29:50;;;;;;;15.38;5.32;;;;;;;;;;4916183;29;20094;-66
2023/03/08 06:32:16;;;;;;;11.88;4.97;;;;;;;;;;4912922;29;20037;-72
2023/03/08 06:34:42;;;;;;;10.30;5.03;;;;;;;;;;4915488;29;20396;-60
2023/03/08 06:37:08;;;;;;;12.43;5.47;;;;;;;;;;4916274;29;20409;-60
2023/03/08 06:39:35;;;;;;;15.68;5.03;;;;;;;;;;4916035;29;20178;-60
2023/03/08 06:42:01;;;;;;;13.05;5.70;;;;;;;;;;4915120;29;20465;-64
2023/03/08 06:44:28;;;;;;;10.18;4.78;;;;;;;;;;4915999;29;20050;-59
2023/03/08 06:46:54;;;;;;;16.48;8.88;;;;;;;;;;4915925;29;20036;-66
2023/03/08 06:49:21;;;;;;;18.75;8.15;;;;;;;;;;4915781;29;20035;-61
2023/03/08 06:51:47;;;;;;;21.15;9.80;;;;;;;;;;4915264;29;20047;-63
2023/03/08 06:54:16;;;;;;;31.13;14.38;;;;;;;;;;4915652;29;20543;-69
2023/03/08 06:56:43;;;;;;;37.20;18.83;;;;;;;;;;4915960;29;20032;-60
2023/03/08 06:59:09;;;;;;;31.58;11.23;;;;;;;;;;4915811;29;20024;-71
2023/03/08 07:01:35;;;;;;;21.63;8.57;;;;;;;;;;4910441;29;20040;-71
2023/03/08 07:04:01;;;;;;;17.25;7.32;;;;;;;;;;4905567;29;20039;-59
2023/03/08 07:06:27;;;;;;;20.60;8.52;;;;;;;;;;4904710;29;20041;-69
2023/03/08 07:08:53;;;;;;;16.67;7.60;;;;;;;;;;4904327;29;20103;-59
2023/03/08 07:11:19;;;;;;;27.60;8.48;;;;;;;;;;4905753;29;20381;-60
2023/03/08 07:13:45;;;;;;;30.08;8.57;;;;;;;;;;4903619;29;20021;-59
2023/03/08 07:16:12;;;;;;;19.02;7.20;;;;;;;;;;4905015;29;20024;-70
2023/03/08 07:18:38;;;;;;;15.95;5.90;;;;;;;;;;4908331;29;20043;-58
2023/03/08 07:21:04;;;;;;;15.50;6.15;;;;;;;;;;4915597;29;20036;-73
2023/03/08 07:23:31;;;;;;;15.93;6.43;;;;;;;;;;4915369;29;20063;-58
2023/03/08 07:25:57;;;;;;;24.08;6.97;;;;;;;;;;4907981;29;20040;-59
2023/03/08 07:28:23;;;;;;;15.25;6.07;;;;;;;;;;4904307;29;20088;-58
2023/03/08 07:30:50;;;;;;;11.85;5.20;;;;;;;;;;4908945;29;20169;-59
2023/03/08 07:33:17;;;;;;;15.35;4.75;;;;;;;;;;4903340;29;20440;-59
2023/03/08 07:35:43;;;;;;;10.13;4.68;;;;;;;;;;4896132;29;20031;-59
2023/03/08 07:38:09;;;;;;;14.43;5.47;;;;;;;;;;4908416;29;20028;-59
2023/03/08 07:40:35;;;;;;;13.50;5.00;;;;;;;;;;4914558;29;20504;-60
2023/03/08 07:43:01;;;;;;;13.98;6.20;;;;;;;;;;4914744;29;20028;-59
2023/03/08 07:45:27;;;;;;;23.70;6.32;;;;;;;;;;4915064;29;20028;-59
2023/03/08 07:47:53;;;;;;;13.15;5.07;;;;;;;;;;4914905;29;20035;-59
2023/03/08 07:50:20;;;;;;;12.00;4.93;;;;;;;;;;4911195;29;20485;-58
2023/03/08 07:52:46;;;;;;;12.70;5.72;;;;;;;;;;4903259;29;20021;-59
2023/03/08 07:55:12;;;;;;;17.08;5.90;;;;;;;;;;4906972;29;20103;-62
2023/03/08 07:57:39;;;;;;;10.77;4.35;;;;;;;;;;4901023;29;20032;-68
2023/03/08 08:00:08;;;;;;;14.23;5.32;;;;;;;;;;4899794;29;20044;-57
2023/03/08 08:02:35;;;;;;;11.77;4.18;;;;;;;;;;4903856;29;20060;-65
2023/03/08 08:05:01;;;;;;;16.27;4.88;;;;;;;;;;4903786;29;20039;-58
2023/03/08 08:07:27;;;;;;;29.58;12.80;;;;;;;;;;4904612;29;20040;-59
2023/03/08 08:09:53;;;;;;;21.67;7.10;;;;;;;;;;4897551;29;20052;-60
2023/03/08 08:12:20;;;;;;;15.95;8.45;;;;;;;;;;4912324;29;20430;-59
2023/03/08 08:14:45;;;;;;;13.27;6.35;;;;;;;;;;4914312;29;20066;-59
2023/03/08 08:17:12;;;;;;;15.75;5.28;;;;;;;;;;4897136;29;20067;-65
2023/03/08 08:19:38;;;;;;;9.23;4.05;;;;;;;;;;4914368;29;20020;-67
2023/03/08 08:22:05;;;;;;;8.07;3.50;;;;;;;;;;4914220;29;20137;-62
2023/03/08 08:24:31;;;;;;;11.50;4.03;;;;;;;;;;4914455;29;20024;-65
2023/03/08 08:26:58;;;;;;;7.82;3.10;;;;;;;;;;4914567;29;20488;-65
2023/03/08 08:29:24;;;;;;;7.95;3.45;;;;;;;;;;4914718;29;20035;-62
2023/03/08 08:31:51;;;;;;;7.28;3.58;;;;;;;;;;4914383;29;20034;-64
2023/03/08 08:34:18;;;;;;;7.65;3.50;;;;;;;;;;4914475;29;20473;-66
2023/03/08 08:36:44;;;;;;;10.45;2.97;;;;;;;;;;4914581;29;20091;-59
2023/03/08 08:39:10;;;;;;;7.78;3.75;;;;;;;;;;4914361;29;20029;-66
2023/03/08 08:41:36;;;;;;;7.13;3.13;;;;;;;;;;4914436;29;20036;-68
2023/03/08 08:44:02;;;;;;;8.38;3.33;;;;;;;;;;4914377;29;20031;-68
2023/03/08 08:46:30;;;;;;;9.70;3.88;;;;;;;;;;4914510;29;20036;-64
2023/03/08 08:48:57;;;;;;;7.90;3.80;;;;;;;;;;4914186;29;20032;-61
2023/03/08 08:51:23;;;;;;;8.25;3.42;;;;;;;;;;4914504;29;20039;-58
2023/03/08 08:53:49;;;;;;;9.48;3.55;;;;;;;;;;4904979;29;20032;-59
2023/03/08 08:56:20;;;;;;;7.05;3.28;;;;;;;;;;4903003;29;20035;-58
2023/03/08 08:58:47;;;;;;;7.90;2.97;;;;;;;;;;4903869;29;20376;-57
2023/03/08 09:01:20;;;;;;;6.03;3.20;;;;;;;;;;4902981;29;20404;-58
2023/03/08 09:03:47;;;;;;;8.50;2.58;;;;;;;;;;4903652;29;20022;-58
2023/03/08 09:06:13;;;;;;;6.93;2.78;;;;;;;;;;4908377;29;20105;-64
2023/03/08 09:08:39;;;;;;;5.57;2.30;;;;;;;;;;4918153;29;20032;-60
2023/03/08 09:11:07;;;;;;;6.40;2.30;;;;;;;;;;4917274;29;20059;-70
2023/03/08 09:13:33;;;;;;;6.57;2.15;;;;;;;;;;4916656;29;20030;-63
2023/03/08 09:15:59;;;;;;;7.45;2.13;;;;;;;;;;4910845;29;20510;-68
2023/03/08 09:18:25;;;;;;;5.88;2.15;;;;;;;;;;4905898;29;20029;-60
2023/03/08 09:20:51;;;;;;;6.20;2.38;;;;;;;;;;4907410;29;20440;-60
2023/03/08 09:23:18;;;;;;;5.68;2.42;;;;;;;;;;4898398;29;20492;-69
2023/03/08 09:25:44;;;;;;;6.05;2.10;;;;;;;;;;4897721;29;20044;-68
2023/03/08 09:28:11;;;;;;;5.10;2.00;;;;;;;;;;4897601;29;20032;-59
2023/03/08 09:30:37;;;;;;;4.70;2.10;;;;;;;;;;4905011;29;20029;-60
2023/03/08 09:33:03;;;;;;;5.13;2.00;;;;;;;;;;4906551;29;20112;-60
2023/03/08 09:35:29;;;;;;;7.40;2.03;;;;;;;;;;4907024;29;20025;-61
2023/03/08 09:37:56;;;;;;;4.32;1.95;;;;;;;;;;4905252;29;20480;-66
2023/03/08 09:40:26;;;;;;;6.10;2.40;;;;;;;;;;4906496;29;20582;-61
2023/03/08 09:42:53;;;;;;;6.75;2.25;;;;;;;;;;4906707;29;20035;-61
2023/03/08 09:45:21;;;;;;;3.90;1.75;;;;;;;;;;4897954;29;20040;-61
2023/03/08 09:47:51;;;;;;;7.40;1.95;;;;;;;;;;4898100;29;20049;-61
2023/03/08 09:50:29;;;;;;;10.10;3.95;;;;;;;;;;4897885;29;20028;-69
2023/03/08 09:53:03;;;;;;;6.47;2.72;;;;;;;;;;4897903;29;20033;-61
2023/03/08 09:55:33;;;;;;;9.35;2.50;;;;;;;;;;4897712;29;20027;-66
2023/03/08 09:58:05;;;;;;;7.43;2.42;;;;;;;;;;4897921;29;20029;-61
2023/03/08 10:00:33;;;;;;;6.13;2.22;;;;;;;;;;4898418;29;20388;-59
2023/03/08 10:03:00;;;;;;;6.90;2.15;;;;;;;;;;4898035;29;20168;-59
2023/03/08 10:05:44;;;;;;;5.55;1.90;;;;;;;;;;4897663;29;20059;-58
2023/03/08 10:08:16;;;;;;;5.68;2.38;;;;;;;;;;4897692;29;20036;-58
2023/03/08 10:10:48;;;;;;;5.88;2.05;;;;;;;;;;4897185;29;20059;-62
2023/03/08 10:13:28;;;;;;;7.82;3.08;;;;;;;;;;4897337;29;20112;-60
2023/03/08 10:15:58;;;;;;;7.75;3.92;;;;;;;;;;4896707;29;20507;-61
2023/03/08 10:18:30;;;;;;;7.95;3.03;;;;;;;;;;4897627;29;20395;-59
2023/03/08 10:20:57;;;;;;;7.72;2.10;;;;;;;;;;4897664;29;20064;-66
2023/03/08 10:23:25;;;;;;;5.45;2.05;;;;;;;;;;4911491;29;20103;-58
2023/03/08 10:25:51;;;;;;;5.53;2.00;;;;;;;;;;4916163;29;20035;-58
2023/03/08 10:28:19;;;;;;;5.25;2.00;;;;;;;;;;4916099;29;20036;-59
2023/03/08 10:30:48;;;;;;;10.18;2.70;;;;;;;;;;4916116;29;20115;-58
2023/03/08 10:33:16;;;;;;;6.90;2.50;;;;;;;;;;4916245;29;20024;-58
2023/03/08 10:35:51;;;;;;;4.65;1.88;;;;;;;;;;4916085;29;20084;-65
2023/03/08 10:38:17;;;;;;;7.03;2.22;;;;;;;;;;4916472;29;20366;-61
2023/03/08 10:40:43;;;;;;;5.72;2.40;;;;;;;;;;4915714;29;20556;-58
2023/03/08 10:43:16;;;;;;;5.82;2.20;;;;;;;;;;4915487;29;20039;-64
2023/03/08 10:45:42;;;;;;;6.32;2.90;;;;;;;;;;4916270;29;20032;-59
2023/03/08 10:48:17;;;;;;;5.43;2.60;;;;;;;;;;4916042;29;20035;-55
2023/03/08 10:50:43;;;;;;;5.43;2.28;;;;;;;;;;4916042;29;20032;-56
2023/03/08 10:53:10;;;;;;;5.10;2.58;;;;;;;;;;4915820;29;20036;-55
2023/03/08 10:55:55;;;;;;;4.80;2.00;;;;;;;;;;4915580;29;20039;-60
2023/03/08 10:58:27;;;;;;;5.50;2.30;;;;;;;;;;4915729;29;20327;-56
2023/03/08 11:00:54;;;;;;;6.03;2.55;;;;;;;;;;4915525;29;20032;-56
2023/03/08 11:03:22;;;;;;;10.05;3.78;;;;;;;;;;4915526;29;20024;-57
2023/03/08 11:06:11;;;;;;;6.80;3.10;;;;;;;;;;4915447;29;20060;-56
2023/03/08 11:08:39;;;;;;;8.20;2.92;;;;;;;;;;4904753;29;20179;-56
2023/03/08 11:11:09;;;;;;;5.78;2.30;;;;;;;;;;4914457;29;20416;-65
2023/03/08 11:13:37;;;;;;;6.45;2.75;;;;;;;;;;4915093;29;20044;-58
2023/03/08 11:16:19;;;;;;;16.30;3.42;;;;;;;;;;4915736;29;20039;-70
2023/03/08 11:18:54;;;;;;;4.72;2.40;;;;;;;;;;4915164;29;20042;-58
2023/03/08 11:21:31;;;;;;;6.82;3.08;;;;;;;;;;4915179;29;20111;-58
2023/03/08 11:24:20;;;;;;;5.03;2.40;;;;;;;;;;4904276;29;20033;-59
2023/03/08 11:26:55;;;;;;;7.57;2.60;;;;;;;;;;4895494;29;20044;-58
2023/03/08 11:29:39;;;;;;;6.68;2.50;;;;;;;;;;4896255;29;20116;-57
2023/03/08 11:32:15;;;;;;;4.45;2.17;;;;;;;;;;4896430;29;20069;-58
2023/03/08 11:34:47;;;;;;;5.60;2.47;;;;;;;;;;4896251;29;20124;-58
2023/03/08 11:37:16;;;;;;;7.15;2.85;;;;;;;;;;4896102;29;20511;-71
2023/03/08 11:39:42;;;;;;;7.07;2.90;;;;;;;;;;4895923;29;20481;-58
2023/03/08 11:42:15;;;;;;;5.13;2.65;;;;;;;;;;4895739;29;20077;-58
2023/03/08 11:44:44;;;;;;;4.95;2.47;;;;;;;;;;4895999;29;20037;-60
2023/03/08 11:47:22;;;;;;;5.22;2.28;;;;;;;;;;4896011;29;20047;-58
2023/03/08 11:49:54;;;;;;;4.90;2.50;;;;;;;;;;4903673;29;20563;-58
2023/03/08 11:52:32;;;;;;;12.32;3.30;;;;;;;;;;4913477;29;20086;-57
2023/03/08 11:55:08;;;;;;;6.63;1.98;;;;;;;;;;4914511;29;20032;-57
2023/03/08 11:57:37;;;;;;;5.40;2.47;;;;;;;;;;4915167;29;20051;-68
2023/03/08 12:00:11;;;;;;;6.18;3.10;;;;;;;;;;4914119;29;20118;-58
2023/03/08 12:02:39;;;;;;;15.48;7.07;;;;;;;;;;4897959;29;20113;-62
2023/03/08 12:05:09;;;;;;;6.20;3.67;;;;;;;;;;4899668;29;20039;-62
2023/03/08 12:07:40;;;;;;;3.40;2.00;;;;;;;;;;4895565;29;20507;-64
2023/03/08 12:10:06;;;;;;;3.00;2.00;;;;;;;;;;4894944;29;20055;-62
2023/03/08 12:12:40;;;;;;;4.57;1.90;;;;;;;;;;4895176;29;20101;-65
2023/03/08 12:15:14;;;;;;;4.47;2.38;;;;;;;;;;4900226;29;20020;-62
2023/03/08 12:17:42;;;;;;;5.13;2.17;;;;;;;;;;4893195;29;20492;-62
2023/03/08 12:20:15;;;;;;;4.10;2.38;;;;;;;;;;4894905;29;20048;-62
2023/03/08 12:22:46;;;;;;;7.30;1.90;;;;;;;;;;4894789;29;20029;-64
2023/03/08 12:25:50;;;;;;;3.97;1.83;;;;;;;;;;4894647;29;20041;-64
2023/03/08 12:28:23;;;;;;;4.35;2.00;;;;;;;;;;4819696;29;20046;-71
2023/03/08 12:31:07;;;;;;;7.18;2.65;;;;;;;;;;4819032;29;20034;-62
2023/03/08 12:33:33;;;;;;;7.30;3.65;;;;;;;;;;4825069;29;20046;-63
2023/03/08 12:36:04;;;;;;;7.93;4.30;;;;;;;;;;4837381;29;20062;-65
2023/03/08 12:38:32;;;;;;;7.25;3.67;;;;;;;;;;4838279;29;20053;-63
2023/03/08 12:40:59;;;;;;;9.23;3.03;;;;;;;;;;4841463;29;20559;-66
2023/03/08 12:43:25;;;;;;;5.65;1.83;;;;;;;;;;4840915;29;20045;-62
2023/03/08 12:46:00;;;;;;;5.57;1.92;;;;;;;;;;4841482;29;20128;-62
2023/03/08 12:48:27;;;;;;;9.18;2.53;;;;;;;;;;4841610;29;20034;-62
2023/03/08 12:50:57;;;;;;;7.57;2.60;;;;;;;;;;4841501;29;20639;-62
2023/03/08 12:53:26;;;;;;;7.03;2.42;;;;;;;;;;4841020;29;20110;-62
2023/03/08 12:56:03;;;;;;;7.65;3.00;;;;;;;;;;4840688;29;20057;-67
2023/03/08 12:58:30;;;;;;;8.20;2.55;;;;;;;;;;4856842;29;20486;-69
2023/03/08 13:01:26;;;;;;;7.57;3.13;;;;;;;;;;4909107;29;20147;-62
2023/03/08 13:03:52;;;;;;;5.50;2.78;;;;;;;;;;4911689;29;20036;-62
2023/03/08 13:06:24;;;;;;;5.18;1.83;;;;;;;;;;4898263;29;20107;-62
2023/03/08 13:08:50;;;;;;;;;;;;;;;;;;4898428;29;20047;-62
2023/03/08 13:11:17;;;;;;;7.05;2.40;;;;;;;;;;4912132;29;20366;-62
2023/03/08 13:13:56;;;;;;;7.78;2.60;;;;;;;;;;4916478;29;20032;-63
2023/03/08 13:16:33;;;;;;;12.73;3.40;;;;;;;;;;4900334;29;20091;-62
2023/03/08 13:19:19;;;;;;;6.90;2.90;;;;;;;;;;4898868;29;20036;-63
2023/03/08 13:22:18;;;;;;;6.43;2.70;;;;;;;;;;4888345;29;20037;-63
2023/03/08 13:24:50;;;;;;;5.05;2.40;;;;;;;;;;4833635;29;20484;-69
2023/03/08 13:27:32;;;;;;;5.68;2.55;;;;;;;;;;4839612;29;20111;-62
2023/03/08 13:30:01;;;;;;;7.15;2.85;;;;;;;;;;4837601;29;20049;-63
2023/03/08 13:32:27;;;;;;;6.60;3.03;;;;;;;;;;4836342;29;20490;-62
2023/03/08 13:35:00;;;;;;;8.60;3.15;;;;;;;;;;4829661;29;20140;-63
2023/03/08 13:37:27;;;;;;;8.85;3.65;;;;;;;;;;4822508;29;20543;-64
2023/03/08 13:39:58;;;;;;;8.43;3.55;;;;;;;;;;4821877;29;20133;-65
2023/03/08 13:42:25;;;;;;;9.48;3.58;;;;;;;;;;4821854;29;20038;-70
2023/03/08 13:44:52;;;;;;;10.95;3.15;;;;;;;;;;4821012;29;20451;-62
2023/03/08 13:47:20;;;;;;;13.05;3.90;;;;;;;;;;4821982;29;20510;-62
2023/03/08 13:49:47;;;;;;;10.50;3.20;;;;;;;;;;4820877;29;20062;-62
2023/03/08 13:52:16;;;;;;;9.15;3.28;;;;;;;;;;4821682;29;20512;-61
2023/03/08 13:54:44;;;;;;;12.05;4.00;;;;;;;;;;4821643;29;20145;-61
2023/03/08 13:57:21;;;;;;;9.90;4.50;;;;;;;;;;4821180;29;20130;-66
2023/03/08 13:59:51;;;;;;;11.00;5.63;;;;;;;;;;4845324;29;20040;-62
2023/03/08 14:02:27;;;;;;;22.23;7.20;;;;;;;;;;4917116;29;20051;-63
2023/03/08 14:04:54;;;;;;;8.55;3.90;;;;;;;;;;4916595;29;20532;-62
2023/03/08 14:07:28;;;;;;;9.52;3.97;;;;;;;;;;4916676;29;20455;-63
2023/03/08 14:09:54;;;;;;;9.88;4.50;;;;;;;;;;4916085;29;20123;-67
2023/03/08 14:12:22;;;;;;;9.60;3.40;;;;;;;;;;4915456;29;20115;-63
2023/03/08 14:14:52;;;;;;;7.28;3.58;;;;;;;;;;4910591;29;20025;-62
2023/03/08 14:17:20;;;;;;;9.82;4.43;;;;;;;;;;4896827;29;20025;-62
2023/03/08 14:19:51;;;;;;;9.30;3.67;;;;;;;;;;4896462;29;20031;-65
2023/03/08 14:22:18;;;;;;;10.52;3.63;;;;;;;;;;4907795;29;20055;-62
2023/03/08 14:24:48;;;;;;;10.05;3.95;;;;;;;;;;4914782;29;20032;-63
2023/03/08 14:27:14;;;;;;;7.80;3.45;;;;;;;;;;4915482;29;20047;-66
2023/03/08 14:29:41;;;;;;;8.32;4.07;;;;;;;;;;4897765;29;20385;-63
2023/03/08 14:32:10;;;;;;;11.20;4.35;;;;;;;;;;4897604;29;20036;-63
2023/03/08 14:34:40;;;;;;;13.27;4.50;;;;;;;;;;4897387;29;20043;-62
2023/03/08 14:37:13;;;;;;;9.15;3.72;;;;;;;;;;4897306;29;20036;-62
2023/03/08 14:39:41;;;;;;;11.82;4.15;;;;;;;;;;4896490;29;20037;-63
2023/03/08 14:42:25;;;;;;;8.00;3.63;;;;;;;;;;4897190;29;20500;-64
2023/03/08 14:44:52;;;;;;;11.85;4.40;;;;;;;;;;4905747;29;20088;-68
2023/03/08 14:47:23;;;;;;;9.40;3.47;;;;;;;;;;4903043;29;20433;-65
2023/03/08 14:50:18;;;;;;;11.90;4.13;;;;;;;;;;4905470;29;20024;-69
2023/03/08 14:52:45;;;;;;;8.02;3.88;;;;;;;;;;4905038;29;20028;-64
2023/03/08 14:55:21;;;;;;;8.93;4.80;;;;;;;;;;4905688;29;20772;-65
2023/03/08 14:57:47;;;;;;;11.98;4.35;;;;;;;;;;4905154;29;20108;-64
2023/03/08 15:00:14;;;;;;;13.90;4.53;;;;;;;;;;4904507;29;20103;-66
2023/03/08 15:02:41;;;;;;;14.15;4.20;;;;;;;;;;4901457;29;20029;-66
2023/03/08 15:05:18;;;;;;;8.20;3.55;;;;;;;;;;4905041;29;20056;-65
2023/03/08 15:07:44;;;;;;;9.15;3.78;;;;;;;;;;4896061;29;20044;-65
2023/03/08 15:10:22;;;;;;;7.85;3.85;;;;;;;;;;4896724;29;20056;-65
2023/03/08 15:12:48;;;;;;;8.70;4.30;;;;;;;;;;4914767;29;20057;-64
2023/03/08 15:15:14;;;;;;;10.55;4.50;;;;;;;;;;4914313;29;20728;-62
2023/03/08 15:17:40;;;;;;;10.57;4.63;;;;;;;;;;4915159;29;20099;-62
2023/03/08 15:20:06;;;;;;;9.80;4.72;;;;;;;;;;4909135;29;20478;-65
2023/03/08 15:22:37;;;;;;;13.27;4.40;;;;;;;;;;4915466;29;20452;-62
2023/03/08 15:25:06;;;;;;;10.10;3.70;;;;;;;;;;4913185;29;20455;-61
2023/03/08 15:27:33;;;;;;;8.35;4.50;;;;;;;;;;4915026;29;20182;-62
2023/03/08 15:29:59;;;;;;;10.02;5.05;;;;;;;;;;4909103;29;20042;-63
2023/03/08 15:32:25;;;;;;;8.80;4.28;;;;;;;;;;4909123;29;20036;-63
2023/03/08 15:34:51;;;;;;;9.85;4.32;;;;;;;;;;4904155;29;20123;-65
2023/03/08 15:37:17;;;;;;;10.73;4.65;;;;;;;;;;4903313;29;20489;-65
2023/03/08 15:39:43;;;;;;;8.93;4.68;;;;;;;;;;4905123;29;20100;-65
2023/03/08 15:42:09;;;;;;;11.15;5.00;;;;;;;;;;4903819;29;20033;-67
2023/03/08 15:44:35;;;;;;;10.52;4.90;;;;;;;;;;4903996;29;20443;-66
2023/03/08 15:47:01;;;;;;;10.45;5.05;;;;;;;;;;4904981;29;20052;-64
2023/03/08 15:49:27;;;;;;;13.15;6.00;;;;;;;;;;4900401;29;20037;-64
2023/03/08 15:51:53;;;;;;;11.50;5.63;;;;;;;;;;4894333;29;20516;-67
2023/03/08 15:54:19;;;;;;;12.85;6.00;;;;;;;;;;4899799;29;20036;-65
2023/03/08 15:56:45;;;;;;;16.00;7.20;;;;;;;;;;4914083;29;20032;-66
2023/03/08 15:59:11;;;;;;;17.98;7.32;;;;;;;;;;4907311;29;20028;-66
2023/03/08 16:01:37;;;;;;;16.95;7.72;;;;;;;;;;4898083;29;20079;-64
2023/03/08 16:04:03;;;;;;;15.40;7.82;;;;;;;;;;4894578;29;20056;-67
2023/03/08 16:06:29;;;;;;;17.67;8.35;;;;;;;;;;4900463;29;20040;-69
2023/03/08 16:08:56;;;;;;;21.90;11.63;;;;;;;;;;4903791;29;20019;-65
2023/03/08 16:11:22;;;;;;;24.48;11.50;;;;;;;;;;4904538;29;20087;-65
2023/03/08 16:13:52;;;;;;;23.25;10.63;;;;;;;;;;4898711;29;20029;-64
2023/03/08 16:16:18;;;;;;;28.95;11.55;;;;;;;;;;4903221;29;20032;-65
2023/03/08 16:18:45;;;;;;;25.38;12.63;;;;;;;;;;4904819;29;20484;-67
2023/03/08 16:21:11;;;;;;;28.83;14.38;;;;;;;;;;4907806;29;20508;-64
2023/03/08 16:23:40;;;;;;;33.70;17.83;;;;;;;;;;4913769;29;20035;-64
2023/03/08 16:26:08;;;;;;;33.03;17.58;;;;;;;;;;4914336;29;20034;-77
2023/03/08 16:28:34;;;;;;;30.23;15.77;;;;;;;;;;4914111;29;20492;-65
2023/03/08 16:31:00;;;;;;;27.40;15.43;;;;;;;;;;4914158;29;20115;-64
2023/03/08 16:33:26;;;;;;;33.67;15.93;;;;;;;;;;4914484;29;20032;-66
2023/03/08 16:35:53;;;;;;;33.15;17.40;;;;;;;;;;4901735;29;20096;-65
2023/03/08 16:38:19;;;;;;;34.38;17.85;;;;;;;;;;4894733;29;20067;-64
2023/03/08 16:40:45;;;;;;;28.15;16.42;;;;;;;;;;4896764;29;20032;-64
2023/03/08 16:43:12;;;;;;;30.85;16.08;;;;;;;;;;4904083;29;20033;-67
2023/03/08 16:45:38;;;;;;;31.67;16.05;;;;;;;;;;4903419;29;20028;-66
2023/03/08 16:48:05;;;;;;;29.92;14.40;;;;;;;;;;4905090;29;20039;-64
2023/03/08 16:50:31;;;;;;;27.95;14.57;;;;;;;;;;4909046;29;20044;-65
2023/03/08 16:52:57;;;;;;;31.15;14.40;;;;;;;;;;4900378;29;20033;-64
2023/03/08 16:55:24;;;;;;;30.42;14.82;;;;;;;;;;4895221;29;20358;-63
2023/03/08 16:57:51;;;;;;;31.42;15.43;;;;;;;;;;4895000;29;20029;-65
2023/03/08 17:00:17;;;;;;;32.30;16.10;;;;;;;;;;4898424;29;20497;-67
2023/03/08 17:02:43;;;;;;;34.60;17.25;;;;;;;;;;4913055;29;20377;-65
2023/03/08 17:05:11;;;;;;;32.53;17.35;;;;;;;;;;4913479;29;20029;-63
2023/03/08 17:07:37;;;;;;;31.40;16.65;;;;;;;;;;4912903;29;20032;-63
2023/03/08 17:10:04;;;;;;;27.40;14.38;;;;;;;;;;4913518;29;20048;-66
2023/03/08 17:12:30;;;;;;;33.28;16.30;;;;;;;;;;4913171;29;20084;-62
2023/03/08 17:14:56;;;;;;;27.60;14.57;;;;;;;;;;4910495;29;20100;-61
2023/03/08 17:17:22;;;;;;;26.38;13.73;;;;;;;;;;4895086;29;20033;-66
2023/03/08 17:19:52;;;;;;;29.75;14.68;;;;;;;;;;4894958;29;20557;-63
2023/03/08 17:22:18;;;;;;;22.90;11.25;;;;;;;;;;4894998;29;20051;-63
2023/03/08 17:24:44;;;;;;;21.13;11.02;;;;;;;;;;4895017;29;20157;-62
2023/03/08 17:27:10;;;;;;;27.50;15.73;;;;;;;;;;4898027;29;20096;-61
2023/03/08 17:29:36;;;;;;;27.33;13.35;;;;;;;;;;4898062;29;20029;-62
2023/03/08 17:32:03;;;;;;;21.92;10.88;;;;;;;;;;4898441;29;20111;-63
2023/03/08 17:34:29;;;;;;;25.27;15.80;;;;;;;;;;4898350;29;20104;-63
2023/03/08 17:36:55;;;;;;;23.02;12.52;;;;;;;;;;4898227;29;20495;-63
2023/03/08 17:39:21;;;;;;;22.77;13.23;;;;;;;;;;4895243;29;20127;-64
2023/03/08 17:41:47;;;;;;;26.55;15.13;;;;;;;;;;4892794;29;20025;-64
2023/03/08 17:44:13;;;;;;;24.52;14.95;;;;;;;;;;4904576;29;20031;-63
2023/03/08 17:46:39;;;;;;;24.65;13.77;;;;;;;;;;4897399;29;20037;-65
2023/03/08 17:49:06;;;;;;;24.67;13.15;;;;;;;;;;4906752;29;20032;-64
2023/03/08 17:51:32;;;;;;;24.98;12.32;;;;;;;;;;4917164;29;20024;-63
2023/03/08 17:53:59;;;;;;;25.83;14.75;;;;;;;;;;4916532;29;20028;-63
2023/03/08 17:56:28;;;;;;;26.80;14.88;;;;;;;;;;4902488;29;20028;-63
2023/03/08 17:58:54;;;;;;;28.40;14.35;;;;;;;;;;4915505;29;20028;-63
2023/03/08 18:01:22;;;;;;;27.70;13.20;;;;;;;;;;4915656;29;20070;-63
2023/03/08 18:03:48;;;;;;;25.45;13.25;;;;;;;;;;4916393;29;20440;-65
2023/03/08 18:06:17;;;;;;;29.60;13.85;;;;;;;;;;4916440;29;20039;-64
2023/03/08 18:08:43;;;;;;;25.83;12.68;;;;;;;;;;4916351;29;20032;-63
2023/03/08 18:11:09;;;;;;;27.83;14.93;;;;;;;;;;4915627;29;20060;-63
2023/03/08 18:13:35;;;;;;;36.58;16.90;;;;;;;;;;4915977;29;20031;-66
2023/03/08 18:16:03;;;;;;;32.60;19.58;;;;;;;;;;4916492;29;20503;-66
2023/03/08 18:18:29;;;;;;;36.63;17.80;;;;;;;;;;4916441;29;20039;-63
2023/03/08 18:20:55;;;;;;;35.28;18.63;;;;;;;;;;4901880;29;20091;-70
2023/03/08 18:23:23;;;;;;;37.13;17.90;;;;;;;;;;4913292;29;20048;-71
2023/03/08 18:25:49;;;;;;;25.67;13.50;;;;;;;;;;4915663;29;20586;-69
2023/03/08 18:28:17;;;;;;;25.73;13.23;;;;;;;;;;4906973;29;20040;-70
2023/03/08 18:30:43;;;;;;;23.50;12.20;;;;;;;;;;4906819;29;20032;-68
2023/03/08 18:33:09;;;;;;;17.35;10.25;;;;;;;;;;4905649;29;20509;-72
2023/03/08 18:35:35;;;;;;;21.13;11.02;;;;;;;;;;4904521;29;20032;-69
2023/03/08 18:38:01;;;;;;;20.75;10.90;;;;;;;;;;4906278;29;20171;-65
2023/03/08 18:40:28;;;;;;;18.73;10.40;;;;;;;;;;4903881;29;20043;-67
2023/03/08 18:42:54;;;;;;;23.95;11.32;;;;;;;;;;4905630;29;20024;-71
2023/03/08 18:45:20;;;;;;;23.52;10.43;;;;;;;;;;4903535;29;20386;-70
2023/03/08 18:47:50;;;;;;;20.90;10.63;;;;;;;;;;4903142;29;20039;-70
2023/03/08 18:50:17;;;;;;;26.98;11.02;;;;;;;;;;4910664;29;20024;-71
2023/03/08 18:52:43;;;;;;;23.60;10.77;;;;;;;;;;4910541;29;20028;-60
2023/03/08 18:55:09;;;;;;;28.15;10.38;;;;;;;;;;4915378;29;20028;-61
2023/03/08 18:57:35;;;;;;;21.75;10.35;;;;;;;;;;4915567;29;20034;-61
2023/03/08 19:00:04;;;;;;;25.23;9.85;;;;;;;;;;4915393;29;20024;-61
2023/03/08 19:02:30;;;;;;;19.77;10.00;;;;;;;;;;4907067;29;20535;-62
2023/03/08 19:04:56;;;;;;;19.52;8.90;;;;;;;;;;4897016;29;20029;-68
2023/03/08 19:07:22;;;;;;;18.60;8.85;;;;;;;;;;4896478;29;20550;-62
2023/03/08 19:09:48;;;;;;;18.35;8.90;;;;;;;;;;4896135;29;20043;-62
2023/03/08 19:12:14;;;;;;;25.83;14.07;;;;;;;;;;4896482;29;20043;-63
2023/03/08 19:14:40;;;;;;;26.55;13.57;;;;;;;;;;4896497;29;20104;-61
2023/03/08 19:17:06;;;;;;;27.88;13.13;;;;;;;;;;4902845;29;20080;-61
2023/03/08 19:19:32;;;;;;;24.52;11.95;;;;;;;;;;4903633;29;20104;-61
2023/03/08 19:22:02;;;;;;;21.30;10.23;;;;;;;;;;4896455;29;20119;-59
2023/03/08 19:24:28;;;;;;;21.10;9.65;;;;;;;;;;4896306;29;20112;-59
2023/03/08 19:26:57;;;;;;;24.00;8.85;;;;;;;;;;4901723;29;20064;-59
2023/03/08 19:29:24;;;;;;;20.00;7.88;;;;;;;;;;4903331;29;20107;-63
2023/03/08 19:31:56;;;;;;;18.58;8.10;;;;;;;;;;4903821;29;20028;-74
2023/03/08 19:34:22;;;;;;;;;;;;;;;;;;4905530;29;20136;-76
2023/03/08 19:36:49;;;;;;;16.80;7.13;;;;;;;;;;4895639;29;20349;-58
2023/03/08 19:39:18;;;;;;;18.02;6.70;;;;;;;;;;4894907;29;20032;-58
2023/03/08 19:41:46;;;;;;;11.90;6.15;;;;;;;;;;4895773;29;20032;-59
2023/03/08 19:44:12;;;;;;;15.40;7.90;;;;;;;;;;4903416;29;20033;-59
2023/03/08 19:46:39;;;;;;;16.00;7.00;;;;;;;;;;4907572;29;20140;-59
2023/03/08 19:49:06;;;;;;;17.77;8.60;;;;;;;;;;4914471;29;20527;-68